createdAt,value
2023-03-08T00:01:20.567Z,3.80
2023-03-08T00:03:48.954Z,3.70
2023-03-08T00:06:17.683Z,5.67
2023-03-08T00:08:46.218Z,4.27
2023-03-08T00:11:16.205Z,4.17
2023-03-08T00:13:44.537Z,4.40
2023-03-08T00:16:14.556Z,10.40
2023-03-08T00:18:42.939Z,4.50
2023-03-08T00:21:14.128Z,7.00
2023-03-08T00:23:42.964Z,5.13
2023-03-08T00:26:11.768Z,4.73
2023-03-08T00:28:42.210Z,5.53
2023-03-08T00:31:12.929Z,5.90
2023-03-08T00:33:41.831Z,4.00
2023-03-08T00:36:14.587Z,5.53
2023-03-08T00:38:43.613Z,7.47
2023-03-08T00:41:12.158Z,5.80
2023-03-08T00:43:42.402Z,5.37
2023-03-08T00:46:11.100Z,5.60
2023-03-08T00:48:39.737Z,6.10
2023-03-08T00:51:08.278Z,6.87
2023-03-08T00:53:36.754Z,4.93
2023-03-08T00:56:05.613Z,5.03
2023-03-08T00:58:34.588Z,5.33
2023-03-08T01:01:06.477Z,4.90
2023-03-08T01:03:35.027Z,4.37
2023-03-08T01:06:08.667Z,3.90
2023-03-08T01:08:37.284Z,3.90
2023-03-08T01:11:05.781Z,4.70
2023-03-08T01:13:36.407Z,5.23
2023-03-08T01:16:06.442Z,3.87
2023-03-08T01:18:34.791Z,4.73
2023-03-08T01:21:05.327Z,4.60
2023-03-08T01:23:34.051Z,4.80
2023-03-08T01:26:04.394Z,4.10
2023-03-08T01:28:34.059Z,4.00
2023-03-08T01:31:03.299Z,3.87
2023-03-08T01:33:33.504Z,3.67
2023-03-08T01:36:04.788Z,3.90
2023-03-08T01:38:33.218Z,4.40
2023-03-08T01:41:03.880Z,3.90
2023-03-08T01:43:34.133Z,4.93
2023-03-08T01:46:18.611Z,4.40
2023-03-08T01:48:55.573Z,4.43
2023-03-08T01:51:31.508Z,4.27
2023-03-08T01:54:01.659Z,5.13
2023-03-08T01:56:30.593Z,4.73
2023-03-08T01:58:59.882Z,4.80
2023-03-08T02:01:29.104Z,6.13
2023-03-08T02:04:01.432Z,4.03
2023-03-08T02:06:30.785Z,4.77
2023-03-08T02:09:03.551Z,3.90
2023-03-08T02:11:34.356Z,5.00
2023-03-08T02:14:03.456Z,3.77
2023-03-08T02:16:32.800Z,3.80
2023-03-08T02:19:05.477Z,4.17
2023-03-08T02:21:34.144Z,4.27
2023-03-08T02:24:07.963Z,3.67
2023-03-08T02:26:38.228Z,4.20
2023-03-08T02:29:07.255Z,4.07
2023-03-08T02:31:35.698Z,2.97
2023-03-08T02:34:06.213Z,3.53
2023-03-08T02:36:34.590Z,3.67
2023-03-08T02:39:02.862Z,2.77
2023-03-08T02:41:32.683Z,4.10
2023-03-08T02:44:06.494Z,3.40
2023-03-08T02:46:37.430Z,3.40
2023-03-08T02:49:05.959Z,3.63
2023-03-08T02:51:34.321Z,3.03
2023-03-08T02:54:02.654Z,3.50
2023-03-08T02:56:32.406Z,3.30
2023-03-08T02:59:00.740Z,3.50
2023-03-08T03:01:29.517Z,2.80
2023-03-08T03:03:58.334Z,3.07
2023-03-08T03:06:27.204Z,4.00
2023-03-08T03:08:58.038Z,5.67
2023-03-08T03:11:27.269Z,4.93
2023-03-08T03:13:58.800Z,3.10
2023-03-08T03:16:31.991Z,3.77
2023-03-08T03:19:00.581Z,3.80
2023-03-08T03:21:28.951Z,3.90
2023-03-08T03:23:57.711Z,3.40
2023-03-08T03:26:33.957Z,4.60
2023-03-08T03:29:03.853Z,5.47
2023-03-08T03:31:37.671Z,6.30
2023-03-08T03:34:06.424Z,4.97
2023-03-08T03:36:35.600Z,6.37
2023-03-08T03:39:03.917Z,3.50
2023-03-08T03:41:35.178Z,4.73
2023-03-08T03:44:10.258Z,4.87
2023-03-08T03:46:39.390Z,3.87
2023-03-08T03:49:09.972Z,6.70
2023-03-08T03:51:41.251Z,3.93
2023-03-08T03:54:18.572Z,5.57
2023-03-08T03:56:48.634Z,5.97
2023-03-08T03:59:18.273Z,4.17
2023-03-08T04:01:47.255Z,4.33
2023-03-08T04:04:22.986Z,4.20
2023-03-08T04:06:53.798Z,4.63
2023-03-08T04:09:26.209Z,4.07
2023-03-08T04:12:06.893Z,3.73
2023-03-08T04:14:39.570Z,5.20
2023-03-08T04:17:09.841Z,4.67
2023-03-08T04:19:45.724Z,7.43
2023-03-08T04:22:14.918Z,4.60
2023-03-08T04:24:50.937Z,6.40
2023-03-08T04:27:25.596Z,5.63
2023-03-08T04:29:55.625Z,6.13
2023-03-08T04:32:24.940Z,4.57
2023-03-08T04:34:57.826Z,8.83
2023-03-08T04:37:29.108Z,7.97
2023-03-08T04:40:05.646Z,6.13
2023-03-08T04:42:37.190Z,7.43
2023-03-08T04:45:08.262Z,6.50
2023-03-08T04:47:36.731Z,50.37
2023-03-08T04:50:06.207Z,36.80
2023-03-08T04:52:35.938Z,55.73
2023-03-08T04:55:07.630Z,51.27
2023-03-08T04:57:36.731Z,20.63
2023-03-08T05:00:08.382Z,11.93
2023-03-08T05:02:39.824Z,9.30
2023-03-08T05:05:13.455Z,8.93
2023-03-08T05:07:42.876Z,7.33
2023-03-08T05:10:12.057Z,7.93
2023-03-08T05:12:42.210Z,7.63
2023-03-08T05:15:13.187Z,7.17
2023-03-08T05:17:41.521Z,7.47
2023-03-08T05:20:11.305Z,6.90
2023-03-08T05:22:57.649Z,6.50
2023-03-08T05:25:31.581Z,7.70
2023-03-08T05:28:01.646Z,6.17
2023-03-08T05:30:31.487Z,6.27
2023-03-08T05:33:00.211Z,7.90
2023-03-08T05:35:28.736Z,9.97
2023-03-08T05:37:57.821Z,6.70
2023-03-08T05:40:26.669Z,6.00
2023-03-08T05:42:56.081Z,7.10
2023-03-08T05:45:33.828Z,6.57
2023-03-08T05:48:03.927Z,7.30
2023-03-08T05:50:34.942Z,6.50
2023-03-08T05:53:03.319Z,7.93
2023-03-08T05:55:31.909Z,8.40
2023-03-08T05:58:00.860Z,8.53
2023-03-08T06:00:29.522Z,9.27
2023-03-08T06:03:03.968Z,20.73
2023-03-08T06:05:36.541Z,31.80
2023-03-08T06:08:05.293Z,19.63
2023-03-08T06:10:34.564Z,13.33
2023-03-08T06:13:03.609Z,11.77
2023-03-08T06:15:32.018Z,11.27
2023-03-08T06:18:00.376Z,10.30
2023-03-08T06:20:29.712Z,32.13
2023-03-08T06:22:59.625Z,41.27
2023-03-08T06:25:27.954Z,15.87
2023-03-08T06:27:56.791Z,13.50
2023-03-08T06:30:32.063Z,10.57
2023-03-08T06:33:01.593Z,11.93
2023-03-08T06:35:30.124Z,12.40
2023-03-08T06:38:03.726Z,11.93
2023-03-08T06:40:33.087Z,12.90
2023-03-08T06:43:01.759Z,11.83
2023-03-08T06:45:30.385Z,15.50
2023-03-08T06:47:58.761Z,11.80
2023-03-08T06:50:27.340Z,11.50
2023-03-08T06:52:56.544Z,11.47
2023-03-08T06:55:39.379Z,8.27
2023-03-08T06:58:08.799Z,7.30
2023-03-08T07:00:37.450Z,6.73
2023-03-08T07:03:06.040Z,6.57
2023-03-08T07:05:34.654Z,47.07
2023-03-08T07:08:03.018Z,30.90
2023-03-08T07:10:31.419Z,17.93
2023-03-08T07:13:01.272Z,9.27
2023-03-08T07:15:29.883Z,6.90
2023-03-08T07:17:59.142Z,7.50
2023-03-08T07:20:28.832Z,5.77
2023-03-08T07:22:57.452Z,6.07
2023-03-08T07:25:25.760Z,6.47
2023-03-08T07:27:54.160Z,6.40
2023-03-08T07:30:23.989Z,5.13
2023-03-08T07:32:54.699Z,5.87
2023-03-08T07:35:23.142Z,6.43
2023-03-08T07:37:51.554Z,6.77
2023-03-08T07:40:20.243Z,5.20
2023-03-08T07:42:48.944Z,6.30
2023-03-08T07:45:30.723Z,6.30
2023-03-08T07:47:59.457Z,6.13
2023-03-08T07:50:28.332Z,5.60
2023-03-08T07:52:56.785Z,5.57
2023-03-08T07:55:25.601Z,5.90
2023-03-08T07:57:54.087Z,6.57
2023-03-08T08:00:23.284Z,6.37
2023-03-08T08:02:54.167Z,5.50
2023-03-08T08:05:23.047Z,6.60
2023-03-08T08:07:51.850Z,5.57
2023-03-08T08:10:20.449Z,5.90
2023-03-08T08:12:49.065Z,7.80
2023-03-08T08:15:17.984Z,6.60
2023-03-08T08:17:46.403Z,6.23
2023-03-08T08:20:16.125Z,6.17
2023-03-08T08:22:44.607Z,4.90
2023-03-08T08:25:12.877Z,4.67
2023-03-08T08:27:41.172Z,5.43
2023-03-08T08:30:11.259Z,4.57
2023-03-08T08:32:39.653Z,4.73
2023-03-08T08:35:08.824Z,4.30
2023-03-08T08:37:38.641Z,4.40
2023-03-08T08:40:10.444Z,3.90
2023-03-08T08:42:38.859Z,3.77
2023-03-08T08:45:08.516Z,4.10
2023-03-08T08:47:36.855Z,3.57
2023-03-08T08:50:05.798Z,2.77
2023-03-08T08:52:34.261Z,3.47
2023-03-08T08:55:04.085Z,3.27
2023-03-08T08:57:32.908Z,2.90
2023-03-08T09:00:01.440Z,2.27
2023-03-08T09:02:29.895Z,2.60
2023-03-08T09:04:58.350Z,2.43
2023-03-08T09:07:26.723Z,2.70
2023-03-08T09:09:56.020Z,2.30
2023-03-08T09:12:25.984Z,2.33
2023-03-08T09:14:54.406Z,2.73
2023-03-08T09:17:22.802Z,2.10
2023-03-08T09:19:51.757Z,2.10
2023-03-08T09:22:20.120Z,1.70
2023-03-08T09:24:50.805Z,1.57
2023-03-08T09:27:19.198Z,1.53
2023-03-08T09:29:49.093Z,1.97
2023-03-08T09:32:17.837Z,1.90
2023-03-08T09:34:46.861Z,1.73
2023-03-08T09:37:15.727Z,1.73
2023-03-08T09:39:44.130Z,2.50
2023-03-08T09:42:20.860Z,1.47
2023-03-08T09:45:02.555Z,1.47
2023-03-08T09:47:40.011Z,1.50
2023-03-08T09:50:26.428Z,1.37
2023-03-08T09:53:00.346Z,1.53
2023-03-08T09:55:31.210Z,2.17
2023-03-08T09:58:02.942Z,3.53
2023-03-08T10:00:34.465Z,2.43
2023-03-08T10:03:20.150Z,1.77
2023-03-08T10:05:54.277Z,1.30
2023-03-08T10:08:27.442Z,1.47
2023-03-08T10:11:01.463Z,2.00
2023-03-08T10:13:33.297Z,1.07
2023-03-08T10:16:15.698Z,1.63
2023-03-08T10:18:48.389Z,1.60
2023-03-08T10:21:19.501Z,3.00
2023-03-08T10:23:49.454Z,2.20
2023-03-08T10:26:18.684Z,2.10
2023-03-08T10:28:47.011Z,2.03
2023-03-08T10:31:26.275Z,1.60
2023-03-08T10:34:03.657Z,1.50
2023-03-08T10:36:32.442Z,1.60
2023-03-08T10:39:07.374Z,1.30
2023-03-08T10:41:43.579Z,1.77
2023-03-08T10:44:16.508Z,1.40
2023-03-08T10:46:51.222Z,1.57
2023-03-08T10:49:20.839Z,2.13
2023-03-08T10:51:57.884Z,3.17
2023-03-08T10:54:27.729Z,1.57
2023-03-08T10:56:59.112Z,1.70
2023-03-08T10:59:32.638Z,2.00
2023-03-08T11:02:16.462Z,1.83
2023-03-08T11:04:53.139Z,1.57
2023-03-08T11:07:24.674Z,1.87
2023-03-08T11:09:53.460Z,1.53
2023-03-08T11:12:26.028Z,2.10
2023-03-08T11:14:54.683Z,1.50
2023-03-08T11:17:30.482Z,4.50
2023-03-08T11:20:13.962Z,4.27
2023-03-08T11:23:08.010Z,4.10
2023-03-08T11:25:43.686Z,2.90
2023-03-08T11:28:25.465Z,2.30
2023-03-08T11:31:13.314Z,1.80
2023-03-08T11:34:23.717Z,2.70
2023-03-08T11:37:03.397Z,2.23
2023-03-08T11:39:35.266Z,1.57
2023-03-08T11:42:14.256Z,1.97
2023-03-08T11:45:02.242Z,1.93
2023-03-08T11:47:48.297Z,2.10
2023-03-08T11:50:23.413Z,2.60
2023-03-08T11:53:02.520Z,2.10
2023-03-08T11:55:40.601Z,2.33
2023-03-08T11:58:18.795Z,2.60
2023-03-08T12:00:48.924Z,2.57
2023-03-08T12:03:20.372Z,1.90
2023-03-08T12:05:54.601Z,1.70
2023-03-08T12:08:28.613Z,1.73
2023-03-08T12:11:01.873Z,2.20
2023-03-08T12:13:34.687Z,2.53
2023-03-08T12:16:10.289Z,1.90
2023-03-08T12:18:46.337Z,2.00
2023-03-08T12:21:29.571Z,1.73
2023-03-08T12:24:14.403Z,1.70
2023-03-08T12:26:48.687Z,20.13
2023-03-08T12:29:23.538Z,13.60
2023-03-08T12:31:53.071Z,3.00
2023-03-08T12:34:29.078Z,4.20
2023-03-08T12:36:58.784Z,1.83
2023-03-08T12:39:30.775Z,2.70
2023-03-08T12:42:01.839Z,2.13
2023-03-08T12:44:31.344Z,2.20
2023-03-08T12:47:04.414Z,2.00
2023-03-08T12:49:35.639Z,2.47
2023-03-08T12:52:07.567Z,2.00
2023-03-08T12:54:37.225Z,2.00
2023-03-08T12:57:17.678Z,2.10
2023-03-08T12:59:46.949Z,2.03
2023-03-08T13:02:31.135Z,2.20
2023-03-08T13:05:05.623Z,2.37
2023-03-08T13:07:41.073Z,2.03
2023-03-08T13:10:20.729Z,1.87
2023-03-08T13:13:05.517Z,2.40
2023-03-08T13:15:34.130Z,2.40
2023-03-08T13:18:06.299Z,2.33
2023-03-08T13:21:02.662Z,2.43
2023-03-08T13:23:37.378Z,2.40
2023-03-08T13:26:49.373Z,2.30
2023-03-08T13:29:21.521Z,3.13
2023-03-08T13:31:51.265Z,2.87
2023-03-08T13:34:31.474Z,2.43
2023-03-08T13:37:01.757Z,2.93
2023-03-08T13:39:32.984Z,2.53
2023-03-08T13:42:10.677Z,2.37
2023-03-08T13:44:39.554Z,2.30
2023-03-08T13:47:20.792Z,3.13
2023-03-08T13:49:51.890Z,2.40
2023-03-08T13:52:23.161Z,5.30
2023-03-08T13:54:55.377Z,2.07
2023-03-08T14:06:30.106Z,2.10
2023-03-08T14:09:02.173Z,2.27
2023-03-08T14:11:34.552Z,2.93
2023-03-08T14:14:07.205Z,3.10
2023-03-08T14:16:37.829Z,6.67
2023-03-08T14:19:12.567Z,5.17
2023-03-08T14:21:50.327Z,3.27
2023-03-08T14:24:22.758Z,2.60
2023-03-08T14:27:02.890Z,3.00
2023-03-08T14:29:32.775Z,2.70
2023-03-08T14:32:05.446Z,3.17
2023-03-08T14:34:36.363Z,4.60
2023-03-08T14:37:08.294Z,2.70
2023-03-08T14:39:38.519Z,2.73
2023-03-08T14:42:17.959Z,2.87
2023-03-08T14:44:52.086Z,2.53
2023-03-08T14:47:24.905Z,2.40
2023-03-08T14:49:57.472Z,2.93
2023-03-08T14:52:29.013Z,2.67
2023-03-08T14:54:57.422Z,2.83
2023-03-08T14:57:30.424Z,3.50
2023-03-08T15:00:07.862Z,3.73
2023-03-08T15:02:37.195Z,3.47
2023-03-08T15:05:07.967Z,4.07
2023-03-08T15:07:37.978Z,10.87
2023-03-08T15:10:14.151Z,5.80
2023-03-08T15:12:44.017Z,5.17
2023-03-08T15:15:15.568Z,3.40
2023-03-08T15:17:43.934Z,3.53
2023-03-08T15:20:13.685Z,4.13
2023-03-08T15:22:45.860Z,3.90
2023-03-08T15:25:16.789Z,4.10
2023-03-08T15:27:48.740Z,4.17
2023-03-08T15:30:19.530Z,4.57
2023-03-08T15:32:48.063Z,4.73
2023-03-08T15:35:17.033Z,3.97
2023-03-08T15:37:46.036Z,4.07
2023-03-08T15:40:17.364Z,4.77
2023-03-08T15:42:47.454Z,3.90
2023-03-08T15:45:16.482Z,6.43
2023-03-08T15:47:44.915Z,5.03
2023-03-08T15:50:19.544Z,4.33
2023-03-08T15:52:48.046Z,4.40
2023-03-08T15:55:16.664Z,4.40
2023-03-08T15:57:46.366Z,5.57
2023-03-08T16:00:16.875Z,4.77
2023-03-08T16:02:45.508Z,4.43
2023-03-08T16:05:15.680Z,8.87
2023-03-08T16:07:44.673Z,10.47
2023-03-08T16:10:16.770Z,5.80
2023-03-08T16:12:46.767Z,4.97
2023-03-08T16:15:15.641Z,5.60
2023-03-08T16:17:44.180Z,6.10
2023-03-08T16:20:14.252Z,5.67
2023-03-08T16:22:42.983Z,6.43
2023-03-08T16:25:11.706Z,7.83
2023-03-08T16:27:40.104Z,7.00
2023-03-08T16:30:12.821Z,9.07
2023-03-08T16:32:41.230Z,7.67
2023-03-08T16:35:10.243Z,7.43
2023-03-08T16:37:38.545Z,7.10
2023-03-08T16:40:08.261Z,7.17
2023-03-08T16:42:36.684Z,7.07
2023-03-08T16:45:05.910Z,7.60
2023-03-08T16:47:36.393Z,8.80
2023-03-08T16:50:05.050Z,8.17
2023-03-08T16:52:33.452Z,8.00
2023-03-08T16:55:01.824Z,7.10
2023-03-08T16:57:30.138Z,7.90
2023-03-08T16:59:58.618Z,11.77
2023-03-08T17:02:27.025Z,10.67
2023-03-08T17:04:56.832Z,9.00
2023-03-08T17:07:25.260Z,8.43
2023-03-08T17:09:55.690Z,8.03
2023-03-08T17:12:24.055Z,8.07
2023-03-08T17:14:52.546Z,7.87
2023-03-08T17:17:20.926Z,7.80
2023-03-08T17:19:52.636Z,7.50
2023-03-08T17:22:22.423Z,8.33
2023-03-08T17:24:50.672Z,8.53
2023-03-08T17:27:19.049Z,8.43
2023-03-08T17:29:47.353Z,8.60
2023-03-08T17:32:15.833Z,8.37
2023-03-08T17:34:44.226Z,9.97
2023-03-08T17:37:12.566Z,8.90
2023-03-08T17:39:43.146Z,8.13
2023-03-08T17:42:11.381Z,9.77
2023-03-08T17:44:39.627Z,9.80
2023-03-08T17:47:08.008Z,9.87
2023-03-08T17:49:36.396Z,10.93
2023-03-08T17:52:04.794Z,16.60
2023-03-08T17:54:33.207Z,19.23
2023-03-08T17:57:03.082Z,13.67
2023-03-08T17:59:31.536Z,12.80
2023-03-08T18:01:59.948Z,13.20
2023-03-08T18:04:28.430Z,13.60
2023-03-08T18:06:56.765Z,14.13
2023-03-08T18:09:25.303Z,13.43
2023-03-08T18:11:53.632Z,14.80
2023-03-08T18:14:34.257Z,14.30
2023-03-08T18:17:08.677Z,13.53
2023-03-08T18:19:37.084Z,14.70
2023-03-08T18:22:05.766Z,15.87
2023-03-08T18:24:34.120Z,16.10
2023-03-08T18:27:05.394Z,16.00
2023-03-08T18:29:36.127Z,15.30
2023-03-08T18:32:04.737Z,16.07
2023-03-08T18:34:33.283Z,16.43
2023-03-08T18:37:01.690Z,17.40
2023-03-08T18:39:30.228Z,16.50
2023-03-08T18:42:00.808Z,15.80
2023-03-08T18:44:29.627Z,16.33
2023-03-08T18:46:59.847Z,16.73
2023-03-08T18:49:28.626Z,18.37
2023-03-08T18:51:57.509Z,17.20
2023-03-08T18:54:26.146Z,17.93
2023-03-08T18:56:55.752Z,18.23
2023-03-08T18:59:25.106Z,16.80
2023-03-08T19:01:54.511Z,16.40
2023-03-08T19:04:24.419Z,16.53
2023-03-08T19:06:53.062Z,17.50
2023-03-08T19:09:21.831Z,16.47
2023-03-08T19:11:50.333Z,17.17
2023-03-08T19:14:19.199Z,16.57
2023-03-08T19:16:47.653Z,16.67
2023-03-08T19:19:18.053Z,17.60
2023-03-08T19:21:49.707Z,17.07
2023-03-08T19:24:20.810Z,16.10
2023-03-08T19:26:52.630Z,18.70
2023-03-08T19:29:22.849Z,18.20
2023-03-08T19:31:53.361Z,18.30
2023-03-08T19:34:25.132Z,18.10
2023-03-08T19:36:55.115Z,17.53
2023-03-08T19:39:25.613Z,16.43
2023-03-08T19:41:55.640Z,16.43
2023-03-08T19:44:24.778Z,15.50
2023-03-08T19:46:55.068Z,17.03
2023-03-08T19:49:26.044Z,16.63
2023-03-08T19:51:57.168Z,16.40
2023-03-08T19:54:26.738Z,16.10
2023-03-08T19:56:56.348Z,16.20
2023-03-08T19:59:25.355Z,15.67
2023-03-08T20:01:55.906Z,17.00
2023-03-08T20:04:24.792Z,16.63
2023-03-08T20:06:55.096Z,16.17
2023-03-08T20:09:23.899Z,16.43
2023-03-08T20:11:57.417Z,17.60
2023-03-08T20:14:28.068Z,15.80
2023-03-08T20:16:56.862Z,16.70
2023-03-08T20:19:25.417Z,16.00
2023-03-08T20:21:55.158Z,16.70
2023-03-08T20:24:24.308Z,16.53
2023-03-08T20:26:52.834Z,15.80
2023-03-08T20:29:21.893Z,16.60
2023-03-08T20:31:50.490Z,16.33
2023-03-08T20:34:19.238Z,17.30
2023-03-08T20:36:47.766Z,16.87
2023-03-08T20:39:18.326Z,16.00
2023-03-08T20:41:46.621Z,15.63
2023-03-08T20:44:15.078Z,16.80
2023-03-08T20:46:43.760Z,16.07
2023-03-08T20:49:12.482Z,18.73
2023-03-08T20:51:40.909Z,16.53
2023-03-08T20:54:09.978Z,16.90
2023-03-08T20:56:40.080Z,17.27
2023-03-08T20:59:08.834Z,19.20
2023-03-08T21:01:37.626Z,18.00
2023-03-08T21:04:06.973Z,17.03
2023-03-08T21:06:35.942Z,17.17
2023-03-08T21:09:04.798Z,16.37
2023-03-08T21:11:33.657Z,17.53
2023-03-08T21:14:03.551Z,16.30
2023-03-08T21:16:32.521Z,16.77
2023-03-08T21:19:02.684Z,17.50
2023-03-08T21:21:34.331Z,16.40
2023-03-08T21:24:04.692Z,17.37
2023-03-08T21:26:34.108Z,16.73
2023-03-08T21:29:06.074Z,18.00
2023-03-08T21:31:35.806Z,17.47
2023-03-08T21:34:07.100Z,17.10
2023-03-08T21:36:36.208Z,15.20
2023-03-08T21:39:05.208Z,16.40
2023-03-08T21:41:36.059Z,15.83
2023-03-08T21:44:09.421Z,16.97
2023-03-08T21:46:38.925Z,18.37
2023-03-08T21:49:08.264Z,18.37
2023-03-08T21:51:38.469Z,18.10
2023-03-08T21:54:07.266Z,19.10
2023-03-08T21:56:36.131Z,20.27
2023-03-08T21:59:05.972Z,18.60
2023-03-08T22:01:35.018Z,18.33
2023-03-08T22:04:04.636Z,18.47
2023-03-08T22:06:33.756Z,18.33
2023-03-08T22:09:02.521Z,17.70
2023-03-08T22:11:31.588Z,17.47
2023-03-08T22:14:01.781Z,18.40
2023-03-08T22:16:32.613Z,17.17
2023-03-08T22:19:02.749Z,17.60
2023-03-08T22:21:31.786Z,17.30
2023-03-08T22:24:02.300Z,18.30
2023-03-08T22:26:34.700Z,18.17
2023-03-08T22:29:03.188Z,18.07
2023-03-08T22:31:33.606Z,18.80
2023-03-08T22:34:02.463Z,18.23
2023-03-08T22:36:30.942Z,17.73
2023-03-08T22:38:59.356Z,17.20
2023-03-08T22:41:29.039Z,18.30
2023-03-08T22:43:57.547Z,18.33
2023-03-08T22:46:28.571Z,16.90
2023-03-08T22:48:59.594Z,17.37
2023-03-08T22:51:28.733Z,17.17
2023-03-08T22:53:59.129Z,17.43
2023-03-08T22:56:30.682Z,16.53
2023-03-08T22:58:59.459Z,16.73
2023-03-08T23:01:29.676Z,15.80
2023-03-08T23:04:01.034Z,15.83
2023-03-08T23:06:31.391Z,17.33
2023-03-08T23:09:01.401Z,18.27
2023-03-08T23:11:30.084Z,16.90
2023-03-08T23:13:58.355Z,16.83
2023-03-08T23:16:30.219Z,16.30
2023-03-08T23:19:00.152Z,17.07
2023-03-08T23:21:31.891Z,17.73
2023-03-08T23:24:00.515Z,17.87
2023-03-08T23:26:29.247Z,17.13
2023-03-08T23:28:59.351Z,18.93
2023-03-08T23:31:30.377Z,16.17
2023-03-08T23:34:01.687Z,17.70
2023-03-08T23:36:31.952Z,18.57
2023-03-08T23:39:03.077Z,18.80
2023-03-08T23:41:32.441Z,18.10
2023-03-08T23:44:02.122Z,17.97
2023-03-08T23:46:31.353Z,17.63
2023-03-08T23:49:03.271Z,17.13
2023-03-08T23:51:33.755Z,18.60
2023-03-08T23:54:03.421Z,16.20
2023-03-08T23:56:37.853Z,16.13
2023-03-08T23:59:10.961Z,15.87
